createdAt,value
2019-04-26T00:01:03.078Z,10.46
2019-04-26T00:03:36.245Z,10.75
2019-04-26T00:06:02.978Z,10.61
2019-04-26T00:08:29.693Z,10.55
2019-04-26T00:11:06.174Z,11.01
2019-04-26T00:13:38.691Z,10.97
2019-04-26T00:16:12.670Z,10.63
2019-04-26T00:18:39.520Z,10.50
2019-04-26T00:21:05.774Z,10.46
2019-04-26T00:23:32.522Z,10.46
2019-04-26T00:25:59.261Z,10.34
2019-04-26T00:28:26.011Z,10.14
2019-04-26T00:30:52.725Z,10.08
2019-04-26T00:33:19.499Z,10.17
2019-04-26T00:35:47.725Z,10.14
2019-04-26T00:38:14.145Z,10.34
2019-04-26T00:40:39.755Z,10.26
2019-04-26T00:43:06.486Z,10.51
2019-04-26T00:45:33.230Z,10.72
2019-04-26T00:48:00.154Z,11.16
2019-04-26T00:50:26.887Z,10.73
2019-04-26T00:52:53.652Z,10.63
2019-04-26T00:55:20.355Z,10.75
2019-04-26T00:57:47.093Z,10.42
2019-04-26T01:00:13.855Z,10.46
2019-04-26T01:02:43.522Z,11.04
2019-04-26T01:05:10.255Z,10.87
2019-04-26T01:07:37.834Z,10.88
2019-04-26T01:10:04.575Z,10.84
2019-04-26T01:12:31.403Z,10.58
2019-04-26T01:14:58.117Z,10.60
2019-04-26T01:17:24.905Z,10.87
2019-04-26T01:19:52.195Z,11.04
2019-04-26T01:22:21.228Z,10.74
2019-04-26T01:24:47.502Z,10.61
2019-04-26T01:27:14.250Z,10.45
2019-04-26T01:29:41.001Z,10.42
2019-04-26T01:32:08.906Z,10.35
2019-04-26T01:34:35.762Z,10.36
2019-04-26T01:37:02.561Z,10.43
2019-04-26T01:39:29.573Z,10.54
2019-04-26T01:42:04.449Z,10.61
2019-04-26T01:44:51.618Z,10.69
2019-04-26T01:47:18.333Z,10.79
2019-04-26T01:49:45.070Z,10.78
2019-04-26T01:52:11.785Z,10.80
2019-04-26T01:54:39.599Z,10.80
2019-04-26T01:57:06.353Z,11.06
2019-04-26T01:59:33.098Z,10.95
2019-04-26T02:02:21.328Z,11.01
2019-04-26T02:04:48.236Z,11.11
2019-04-26T02:07:15.834Z,11.25
2019-04-26T02:09:42.578Z,11.20
2019-04-26T02:12:09.311Z,11.05
2019-04-26T02:17:15.416Z,10.92
2019-04-26T02:19:44.054Z,10.90
2019-04-26T02:22:21.523Z,10.86
2019-04-26T02:24:48.579Z,10.96
2019-04-26T02:27:28.558Z,10.91
2019-04-26T02:29:55.698Z,10.93
2019-04-26T02:32:22.427Z,10.87
2019-04-26T02:34:49.167Z,10.91
2019-04-26T02:37:15.900Z,10.92
2019-04-26T02:39:42.647Z,10.89
2019-04-26T02:42:20.487Z,10.85
2019-04-26T02:44:52.446Z,10.81
2019-04-26T02:47:30.435Z,10.82
2019-04-26T02:49:55.539Z,10.94
2019-04-26T02:52:29.757Z,10.94
2019-04-26T02:55:00.671Z,10.89
2019-04-26T02:57:46.155Z,10.89
2019-04-26T03:00:13.122Z,10.98
2019-04-26T03:02:40.509Z,11.03
2019-04-26T03:05:07.621Z,11.03
2019-04-26T03:07:43.142Z,11.15
2019-04-26T03:10:09.876Z,11.25
2019-04-26T03:12:37.586Z,11.35
2019-04-26T03:15:19.419Z,11.45
2019-04-26T03:17:56.930Z,11.49
2019-04-26T03:20:29.117Z,11.28
2019-04-26T03:23:08.845Z,11.37
2019-04-26T03:25:40.634Z,11.46
2019-04-26T03:28:13.206Z,11.47
2019-04-26T03:30:52.306Z,11.59
2019-04-26T03:33:52.528Z,11.62
2019-04-26T03:36:28.353Z,11.56
2019-04-26T03:39:06.368Z,11.67
2019-04-26T03:42:00.579Z,11.41
2019-04-26T03:44:33.044Z,12.03
2019-04-26T03:47:00.094Z,11.74
2019-04-26T03:49:54.543Z,11.66
2019-04-26T03:52:37.027Z,11.47
2019-04-26T03:55:01.543Z,11.27
2019-04-26T03:57:40.748Z,10.95
2019-04-26T04:00:15.653Z,10.86
2019-04-26T04:02:53.624Z,10.68
2019-04-26T04:05:26.951Z,10.58
2019-04-26T04:07:53.668Z,10.63
2019-04-26T04:10:21.395Z,10.55
2019-04-26T04:12:55.580Z,10.51
2019-04-26T04:15:26.221Z,10.37
2019-04-26T04:17:56.823Z,10.23
2019-04-26T04:20:40.382Z,10.17
2019-04-26T04:23:13.534Z,10.04
2019-04-26T04:25:43.782Z,10.08
2019-04-26T04:28:17.731Z,9.93
2019-04-26T04:30:53.754Z,10.00
2019-04-26T04:33:27.843Z,10.05
2019-04-26T04:35:55.515Z,10.00
2019-04-26T04:38:30.430Z,9.94
2019-04-26T04:41:08.409Z,9.85
2019-04-26T04:43:38.546Z,9.89
2019-04-26T04:46:18.337Z,9.97
2019-04-26T04:49:13.199Z,10.02
2019-04-26T04:51:48.542Z,9.99
2019-04-26T04:54:17.265Z,9.85
2019-04-26T04:56:52.695Z,9.79
2019-04-26T04:59:23.417Z,9.73
2019-04-26T05:02:02.314Z,9.67
2019-04-26T05:04:33.882Z,9.65
2019-04-26T05:07:16.098Z,9.57
2019-04-26T05:09:50.162Z,9.52
2019-04-26T05:12:20.850Z,9.49
2019-04-26T05:15:06.738Z,9.51
2019-04-26T05:17:43.514Z,9.51
2019-04-26T05:20:19.154Z,9.70
2019-04-26T05:23:13.106Z,9.70
2019-04-26T05:26:12.757Z,9.82
2019-04-26T05:28:47.564Z,10.16
2019-04-26T05:31:28.226Z,10.00
2019-04-26T05:34:04.510Z,9.85
2019-04-26T05:36:54.784Z,9.81
2019-04-26T05:39:24.086Z,9.82
2019-04-26T05:42:02.201Z,9.72
2019-04-26T05:44:38.976Z,9.75
2019-04-26T05:47:21.870Z,9.79
2019-04-26T05:50:08.738Z,9.79
2019-04-26T05:52:55.503Z,9.74
2019-04-26T05:55:38.414Z,9.67
2019-04-26T05:58:22.398Z,9.70
2019-04-26T06:01:28.016Z,9.92
2019-04-26T06:04:21.361Z,9.84
2019-04-26T06:06:57.467Z,9.61
2019-04-26T06:09:37.439Z,9.68
2019-04-26T06:12:12.438Z,9.86
2019-04-26T06:14:48.598Z,10.23
2019-04-26T06:17:37.558Z,10.46
2019-04-26T06:20:22.773Z,10.80
2019-04-26T06:22:48.606Z,10.79
2019-04-26T06:25:32.081Z,10.86
2019-04-26T06:28:02.652Z,11.10
2019-04-26T06:30:45.214Z,11.44
2019-04-26T06:33:13.332Z,11.12
2019-04-26T06:35:40.400Z,11.10
2019-04-26T06:38:45.482Z,11.09
2019-04-26T06:41:22.767Z,10.77
2019-04-26T06:43:49.638Z,10.47
2019-04-26T06:46:38.141Z,10.37
2019-04-26T06:49:17.907Z,10.38
2019-04-26T06:51:47.724Z,10.23
2019-04-26T06:54:17.742Z,10.17
2019-04-26T06:57:12.686Z,9.84
2019-04-26T06:59:54.284Z,9.77
2019-04-26T07:02:24.570Z,9.79
2019-04-26T07:05:04.771Z,10.02
2019-04-26T07:07:46.535Z,10.25
2019-04-26T07:10:40.070Z,10.39
2019-04-26T07:13:24.246Z,10.24
2019-04-26T07:16:22.020Z,10.24
2019-04-26T07:19:02.129Z,10.10
2019-04-26T07:21:39.230Z,9.96
2019-04-26T07:24:27.670Z,9.96
2019-04-26T07:27:03.142Z,9.74
2019-04-26T07:29:39.291Z,9.69
2019-04-26T07:32:15.159Z,9.65
2019-04-26T07:34:48.726Z,9.79
2019-04-26T07:37:38.118Z,9.67
2019-04-26T07:40:23.024Z,9.50
2019-04-26T07:43:08.167Z,9.82
2019-04-26T07:46:01.353Z,9.77
2019-04-26T07:48:34.418Z,9.66
2019-04-26T07:51:29.674Z,10.06
2019-04-26T07:54:08.916Z,10.17
2019-04-26T07:56:46.254Z,10.63
2019-04-26T07:59:53.474Z,10.64
2019-04-26T08:02:42.513Z,10.41
2019-04-26T08:05:14.034Z,10.63
2019-04-26T08:07:41.262Z,10.57
2019-04-26T08:10:12.343Z,10.53
2019-04-26T08:12:38.270Z,10.15
2019-04-26T08:15:24.815Z,10.08
2019-04-26T08:17:55.665Z,10.31
2019-04-26T08:20:32.007Z,10.02
2019-04-26T08:22:58.402Z,10.07
2019-04-26T08:25:25.175Z,10.17
2019-04-26T08:27:51.970Z,9.90
2019-04-26T08:30:19.384Z,9.82
2019-04-26T08:32:49.650Z,9.89
2019-04-26T08:35:21.980Z,9.96
2019-04-26T08:37:50.979Z,10.00
2019-04-26T08:40:25.562Z,10.26
2019-04-26T08:42:53.373Z,10.52
2019-04-26T08:45:25.558Z,10.55
2019-04-26T08:47:58.113Z,10.44
2019-04-26T08:50:31.746Z,10.38
2019-04-26T08:52:58.873Z,10.11
2019-04-26T08:55:25.621Z,10.00
2019-04-26T08:57:52.375Z,10.21
2019-04-26T09:00:28.012Z,10.43
2019-04-26T09:03:10.925Z,10.39
2019-04-26T09:05:49.922Z,10.23
2019-04-26T09:08:14.950Z,10.35
2019-04-26T09:10:43.311Z,10.22
2019-04-26T09:13:08.584Z,10.31
2019-04-26T09:15:47.322Z,10.18
2019-04-26T09:18:14.055Z,10.31
2019-04-26T09:20:42.925Z,10.51
2019-04-26T09:23:13.382Z,10.92
2019-04-26T09:25:44.674Z,10.92
2019-04-26T09:28:18.048Z,10.58
2019-04-26T09:30:54.791Z,10.53
2019-04-26T09:33:31.844Z,10.64
2019-04-26T09:35:55.900Z,10.74
2019-04-26T09:38:22.625Z,10.81
2019-04-26T09:40:52.613Z,11.09
2019-04-26T09:43:35.756Z,10.90
2019-04-26T09:46:22.974Z,11.06
2019-04-26T09:48:57.718Z,10.93
2019-04-26T09:51:24.466Z,10.83
2019-04-26T09:53:51.234Z,10.63
2019-04-26T09:56:17.990Z,11.04
2019-04-26T09:58:44.726Z,10.84
2019-04-26T10:01:11.563Z,10.79
2019-04-26T10:03:38.328Z,10.73
2019-04-26T10:06:07.986Z,10.53
2019-04-26T10:08:31.801Z,10.77
2019-04-26T10:10:58.530Z,10.59
2019-04-26T10:13:33.017Z,10.76
2019-04-26T10:16:25.381Z,10.77
2019-04-26T10:18:58.312Z,10.91
2019-04-26T10:21:22.701Z,11.21
2019-04-26T10:23:49.466Z,11.10
2019-04-26T10:26:16.198Z,11.05
2019-04-26T10:28:42.975Z,11.08
2019-04-26T10:31:09.686Z,11.10
2019-04-26T10:33:36.777Z,11.32
2019-04-26T10:36:03.182Z,11.21
2019-04-26T10:38:29.922Z,11.34
2019-04-26T10:40:56.655Z,12.18
2019-04-26T10:43:23.386Z,11.98
2019-04-26T10:45:54.059Z,11.59
2019-04-26T10:48:16.920Z,11.70
2019-04-26T10:50:43.634Z,11.51
2019-04-26T10:53:15.358Z,11.74
2019-04-26T10:56:01.690Z,11.81
2019-04-26T10:58:36.335Z,11.96
2019-04-26T11:01:00.708Z,12.13
2019-04-26T11:03:27.449Z,12.40
2019-04-26T11:05:55.327Z,12.37
2019-04-26T11:08:20.989Z,12.12
2019-04-26T11:10:48.740Z,12.27
2019-04-26T11:13:14.454Z,12.00
2019-04-26T11:15:41.183Z,11.95
2019-04-26T11:18:07.922Z,12.30
2019-04-26T11:20:34.635Z,12.17
2019-04-26T11:23:01.390Z,12.63
2019-04-26T11:25:29.413Z,12.49
2019-04-26T11:27:54.857Z,12.38
2019-04-26T11:30:21.618Z,12.72
2019-04-26T11:32:48.301Z,12.48
2019-04-26T11:35:15.050Z,12.32
2019-04-26T11:37:41.846Z,12.04
2019-04-26T11:40:10.227Z,11.94
2019-04-26T11:42:35.230Z,12.21
2019-04-26T11:45:06.395Z,12.07
2019-04-26T11:47:28.702Z,11.66
2019-04-26T11:49:55.467Z,11.57
2019-04-26T11:52:22.160Z,11.59
2019-04-26T11:54:51.344Z,11.98
2019-04-26T11:57:15.637Z,11.99
2019-04-26T11:59:42.506Z,11.55
2019-04-26T12:02:12.359Z,11.92
2019-04-26T12:04:55.598Z,11.86
2019-04-26T12:07:28.238Z,11.53
2019-04-26T12:09:56.319Z,11.94
2019-04-26T12:12:23.051Z,11.84
2019-04-26T12:14:49.787Z,11.89
2019-04-26T12:17:16.507Z,12.23
2019-04-26T12:19:43.871Z,12.01
2019-04-26T12:22:10.594Z,12.05
2019-04-26T12:24:37.334Z,12.49
2019-04-26T12:27:04.093Z,12.29
2019-04-26T12:29:30.919Z,12.37
2019-04-26T12:31:57.695Z,12.24
2019-04-26T12:34:24.427Z,12.16
2019-04-26T12:36:51.166Z,12.33
2019-04-26T12:39:17.910Z,12.35
2019-04-26T12:41:44.655Z,12.61
2019-04-26T12:44:11.406Z,12.75
2019-04-26T12:46:43.238Z,12.59
2019-04-26T12:49:09.986Z,12.63
2019-04-26T12:51:38.312Z,12.58
2019-04-26T12:54:03.937Z,12.41
2019-04-26T12:56:31.209Z,12.33
2019-04-26T12:58:56.966Z,12.34
2019-04-26T13:01:23.699Z,12.56
2019-04-26T13:03:58.967Z,12.47
2019-04-26T13:06:22.922Z,12.54
2019-04-26T13:08:51.518Z,12.62
2019-04-26T13:11:48.759Z,12.67
2019-04-26T13:14:16.720Z,13.03
2019-04-26T13:16:52.757Z,12.87
2019-04-26T13:19:19.997Z,13.16
2019-04-26T13:21:46.302Z,13.00
2019-04-26T13:24:13.062Z,12.65
2019-04-26T13:26:39.782Z,12.67
2019-04-26T13:29:06.604Z,12.95
2019-04-26T13:31:33.383Z,13.05
2019-04-26T13:34:02.860Z,12.94
2019-04-26T13:36:29.130Z,13.16
2019-04-26T13:38:53.735Z,12.93
2019-04-26T13:41:20.470Z,12.79
2019-04-26T13:43:47.209Z,12.82
2019-04-26T13:46:37.452Z,12.75
2019-04-26T13:49:23.786Z,12.72
2019-04-26T13:51:50.794Z,12.73
2019-04-26T13:54:21.069Z,12.93
2019-04-26T13:56:44.432Z,13.14
2019-04-26T13:59:11.230Z,13.70
2019-04-26T14:01:37.986Z,14.04
2019-04-26T14:04:06.875Z,14.31
2019-04-26T14:06:31.557Z,14.20
2019-04-26T14:09:02.785Z,13.76
2019-04-26T14:11:28.185Z,13.70
2019-04-26T14:13:55.408Z,13.78
2019-04-26T14:16:21.111Z,13.30
2019-04-26T14:18:45.458Z,13.30
2019-04-26T14:21:12.493Z,13.27
2019-04-26T14:24:01.741Z,13.30
2019-04-26T14:26:35.344Z,12.89
2019-04-26T14:29:01.497Z,12.63
2019-04-26T14:31:28.242Z,12.40
2019-04-26T14:33:54.973Z,12.40
2019-04-26T14:36:22.650Z,12.77
2019-04-26T14:38:48.564Z,12.97
2019-04-26T14:41:21.759Z,12.81
2019-04-26T14:43:42.094Z,13.08
2019-04-26T14:46:10.459Z,13.61
2019-04-26T14:48:36.512Z,14.30
2019-04-26T14:51:08.221Z,15.13
2019-04-26T14:53:32.085Z,15.24
2019-04-26T14:55:56.048Z,15.45
2019-04-26T14:58:29.853Z,15.51
2019-04-26T15:00:51.523Z,15.83
2019-04-26T15:03:25.245Z,15.82
2019-04-26T15:06:05.479Z,15.83
2019-04-26T15:08:34.146Z,15.94
2019-04-26T15:11:01.168Z,15.88
2019-04-26T15:13:25.797Z,16.13
2019-04-26T15:15:52.690Z,16.17
2019-04-26T15:18:19.349Z,16.28
2019-04-26T15:20:46.171Z,15.99
2019-04-26T15:23:13.286Z,16.13
2019-04-26T15:25:41.320Z,15.74
2019-04-26T15:28:06.999Z,15.74
2019-04-26T15:30:34.303Z,15.78
2019-04-26T15:33:03.008Z,15.89
2019-04-26T15:35:28.279Z,16.01
2019-04-26T15:37:53.598Z,15.49
2019-04-26T15:40:35.064Z,15.65
2019-04-26T15:43:14.258Z,15.51
2019-04-26T15:45:42.422Z,15.27
2019-04-26T15:48:21.536Z,15.25
2019-04-26T15:50:50.518Z,15.10
2019-04-26T15:53:14.768Z,15.21
2019-04-26T15:55:41.939Z,15.05
2019-04-26T15:58:08.555Z,15.04
2019-04-26T16:00:35.450Z,15.20
2019-04-26T16:03:03.805Z,15.09
2019-04-26T16:05:29.683Z,15.30
2019-04-26T16:07:57.297Z,15.16
2019-04-26T16:10:25.631Z,15.32
2019-04-26T16:12:48.302Z,15.32
2019-04-26T16:15:15.041Z,15.06
2019-04-26T16:17:41.786Z,15.42
2019-04-26T16:20:08.522Z,15.78
2019-04-26T16:22:35.271Z,15.76
2019-04-26T16:25:05.208Z,15.73
2019-04-26T16:27:32.409Z,15.58
2019-04-26T16:30:02.534Z,15.59
2019-04-26T16:32:43.228Z,15.61
2019-04-26T16:35:09.510Z,15.48
2019-04-26T16:37:36.271Z,15.25
2019-04-26T16:40:03.586Z,15.37
2019-04-26T16:42:30.381Z,15.34
2019-04-26T16:45:04.116Z,15.27
2019-04-26T16:47:23.894Z,15.36
2019-04-26T16:49:52.352Z,15.24
2019-04-26T16:52:17.397Z,15.21
2019-04-26T16:54:44.184Z,15.15
2019-04-26T16:57:12.218Z,14.91
2019-04-26T16:59:37.790Z,15.15
2019-04-26T17:02:04.549Z,14.92
2019-04-26T17:04:33.054Z,14.87
2019-04-26T17:07:01.973Z,14.52
2019-04-26T17:09:29.664Z,14.70
2019-04-26T17:11:52.417Z,14.58
2019-04-26T17:14:18.480Z,14.30
2019-04-26T17:16:45.346Z,14.28
2019-04-26T17:19:13.631Z,14.43
2019-04-26T17:21:43.735Z,14.19
2019-04-26T17:24:18.815Z,14.28
2019-04-26T17:26:50.566Z,14.22
2019-04-26T17:29:17.438Z,14.07
2019-04-26T17:31:44.163Z,14.35
2019-04-26T17:34:12.568Z,14.28
2019-04-26T17:36:37.674Z,14.08
2019-04-26T17:39:06.017Z,13.87
2019-04-26T17:41:33.349Z,13.70
2019-04-26T17:44:07.982Z,14.06
2019-04-26T17:46:26.215Z,13.53
2019-04-26T17:48:52.957Z,13.71
2019-04-26T17:51:22.992Z,13.60
2019-04-26T17:53:47.954Z,13.59
2019-04-26T17:56:13.601Z,13.59
2019-04-26T17:58:51.159Z,13.79
2019-04-26T18:01:06.827Z,13.39
2019-04-26T18:03:33.604Z,13.40
2019-04-26T18:06:01.062Z,13.54
2019-04-26T18:08:40.939Z,13.44
2019-04-26T18:10:53.835Z,13.60
2019-04-26T18:13:20.634Z,13.93
2019-04-26T18:15:48.635Z,13.23
2019-04-26T18:18:35.677Z,13.23
2019-04-26T18:21:23.026Z,13.32
2019-04-26T18:23:54.366Z,13.07
2019-04-26T18:26:17.410Z,13.20
2019-04-26T18:28:49.389Z,13.03
2019-04-26T18:31:10.022Z,13.64
2019-04-26T18:33:36.754Z,13.26
2019-04-26T18:36:04.468Z,13.03
2019-04-26T18:38:30.270Z,13.09
2019-04-26T18:41:01.138Z,13.05
2019-04-26T18:43:24.407Z,12.74
2019-04-26T18:45:50.546Z,12.84
2019-04-26T18:48:17.382Z,12.87
2019-04-26T18:50:45.721Z,12.82
2019-04-26T18:53:30.546Z,12.62
2019-04-26T18:55:54.552Z,12.51
2019-04-26T18:58:21.278Z,13.02
2019-04-26T19:00:48.063Z,12.72
2019-04-26T19:03:16.105Z,12.59
2019-04-26T19:05:43.120Z,12.46
2019-04-26T19:08:09.956Z,12.45
2019-04-26T19:10:35.074Z,12.22
2019-04-26T19:13:08.708Z,12.33
2019-04-26T19:15:44.771Z,12.49
2019-04-26T19:18:15.786Z,12.23
2019-04-26T19:20:49.418Z,12.11
2019-04-26T19:23:16.141Z,11.81
2019-04-26T19:25:42.922Z,11.67
2019-04-26T19:28:09.651Z,11.55
2019-04-26T19:30:39.991Z,11.39
2019-04-26T19:33:03.461Z,11.30
2019-04-26T19:35:30.222Z,11.20
2019-04-26T19:37:56.951Z,11.32
2019-04-26T19:40:23.673Z,11.19
2019-04-26T19:42:55.348Z,11.07
2019-04-26T19:45:28.177Z,11.14
2019-04-26T19:47:59.602Z,11.11
2019-04-26T19:50:48.756Z,11.21
2019-04-26T19:53:21.140Z,11.34
2019-04-26T19:55:54.944Z,11.38
2019-04-26T19:58:22.788Z,11.20
2019-04-26T20:00:48.838Z,11.73
2019-04-26T20:03:16.859Z,11.42
2019-04-26T20:05:44.147Z,11.47
2019-04-26T20:08:09.193Z,11.63
2019-04-26T20:10:40.486Z,11.33
2019-04-26T20:13:02.691Z,11.26
2019-04-26T20:15:29.414Z,11.07
2019-04-26T20:17:59.496Z,11.04
2019-04-26T20:20:23.786Z,11.12
2019-04-26T20:22:51.394Z,11.12
2019-04-26T20:25:16.361Z,10.96
2019-04-26T20:27:43.118Z,10.93
2019-04-26T20:30:12.568Z,10.91
2019-04-26T20:32:41.989Z,10.94
2019-04-26T20:35:14.683Z,10.97
2019-04-26T20:37:44.870Z,10.91
2019-04-26T20:40:18.510Z,10.96
2019-04-26T20:42:35.245Z,10.97
2019-04-26T20:45:04.393Z,11.03
2019-04-26T20:47:28.718Z,10.89
2019-04-26T20:50:01.266Z,10.93
2019-04-26T20:52:24.870Z,10.90
2019-04-26T20:54:51.088Z,10.90
2019-04-26T20:57:15.639Z,10.99
2019-04-26T20:59:43.366Z,10.97
2019-04-26T21:02:09.373Z,10.95
2019-04-26T21:04:38.483Z,10.95
2019-04-26T21:07:06.716Z,10.91
2019-04-26T21:09:29.562Z,11.16
2019-04-26T21:11:56.338Z,11.11
2019-04-26T21:14:23.152Z,11.12
2019-04-26T21:16:50.599Z,11.27
2019-04-26T21:19:19.152Z,11.32
2019-04-26T21:21:48.506Z,11.37
2019-04-26T21:24:13.393Z,11.34
2019-04-26T21:26:52.799Z,11.36
2019-04-26T21:29:31.943Z,11.31
2019-04-26T21:32:05.140Z,11.30
2019-04-26T21:34:34.783Z,11.26
2019-04-26T21:37:22.914Z,11.27
2019-04-26T21:39:59.777Z,11.26
2019-04-26T21:42:26.514Z,11.25
2019-04-26T21:44:54.863Z,11.23
2019-04-26T21:47:20.036Z,11.05
2019-04-26T21:49:46.761Z,10.96
2019-04-26T21:52:13.776Z,10.94
2019-04-26T21:54:40.350Z,10.89
2019-04-26T21:57:07.093Z,10.95
2019-04-26T21:59:40.631Z,10.83
2019-04-26T22:02:00.579Z,10.67
2019-04-26T22:04:28.846Z,10.44
2019-04-26T22:06:55.680Z,10.30
2019-04-26T22:09:34.950Z,10.20
2019-04-26T22:11:57.430Z,10.08
2019-04-26T22:14:26.703Z,10.11
2019-04-26T22:17:02.098Z,10.14
2019-04-26T22:19:49.410Z,10.53
2019-04-26T22:22:21.149Z,10.31
2019-04-26T22:24:48.839Z,10.39
2019-04-26T22:27:17.385Z,10.47
2019-04-26T22:29:43.630Z,10.46
2019-04-26T22:32:11.551Z,10.37
2019-04-26T22:34:37.305Z,10.44
2019-04-26T22:37:11.085Z,10.52
2019-04-26T22:39:32.738Z,10.43
2019-04-26T22:41:58.414Z,10.54
2019-04-26T22:44:31.421Z,10.44
2019-04-26T22:47:05.633Z,10.93
2019-04-26T22:49:34.978Z,10.56
2019-04-26T22:51:59.098Z,10.51
2019-04-26T22:54:25.835Z,10.43
2019-04-26T22:56:53.814Z,10.22
2019-04-26T22:59:19.314Z,10.06
2019-04-26T23:01:48.773Z,9.80
2019-04-26T23:04:16.196Z,9.78
2019-04-26T23:06:42.457Z,9.59
2019-04-26T23:09:07.351Z,9.59
2019-04-26T23:11:33.478Z,9.61
2019-04-26T23:14:11.514Z,9.61
2019-04-26T23:17:01.707Z,9.62
2019-04-26T23:19:24.849Z,9.53
2019-04-26T23:21:54.358Z,9.77
2019-04-26T23:24:18.998Z,9.75
2019-04-26T23:26:45.292Z,9.85
2019-04-26T23:29:16.267Z,9.91
2019-04-26T23:31:41.613Z,9.93
2019-04-26T23:34:05.086Z,9.99
2019-04-26T23:36:31.832Z,9.63
2019-04-26T23:38:58.662Z,9.55
2019-04-26T23:41:25.402Z,9.49
2019-04-26T23:43:56.785Z,9.22
2019-04-26T23:46:22.304Z,9.14
2019-04-26T23:48:48.825Z,9.29
2019-04-26T23:51:12.401Z,9.26
2019-04-26T23:53:39.167Z,9.20
2019-04-26T23:56:05.886Z,9.37
2019-04-26T23:58:32.631Z,9.34
